sensor_id;sensor_type;location;lat;lon;timestamp;P1;durP1;ratioP1;P2;durP2;ratioP2
36725;SDS011;44936;52.086;5.150;2023-05-10T00:01:50;14.60;;;4.65;;
36725;SDS011;44936;52.086;5.150;2023-05-10T00:04:15;13.65;;;4.13;;
36725;SDS011;44936;52.086;5.150;2023-05-10T00:06:41;14.60;;;4.47;;
36725;SDS011;44936;52.086;5.150;2023-05-10T00:09:08;13.10;;;4.32;;
36725;SDS011;44936;52.086;5.150;2023-05-10T00:11:34;12.50;;;4.28;;
36725;SDS011;44936;52.086;5.150;2023-05-10T00:14:01;10.60;;;3.92;;
36725;SDS011;44936;52.086;5.150;2023-05-10T00:16:26;17.80;;;4.93;;
36725;SDS011;44936;52.086;5.150;2023-05-10T00:18:52;14.13;;;4.28;;
36725;SDS011;44936;52.086;5.150;2023-05-10T00:21:17;15.57;;;4.35;;
36725;SDS011;44936;52.086;5.150;2023-05-10T00:23:45;13.50;;;4.82;;
36725;SDS011;44936;52.086;5.150;2023-05-10T00:26:10;14.30;;;4.30;;
36725;SDS011;44936;52.086;5.150;2023-05-10T00:28:36;15.63;;;4.18;;
36725;SDS011;44936;52.086;5.150;2023-05-10T00:31:06;16.42;;;4.60;;
36725;SDS011;44936;52.086;5.150;2023-05-10T00:33:34;18.27;;;4.90;;
36725;SDS011;44936;52.086;5.150;2023-05-10T00:35:59;18.55;;;5.35;;
36725;SDS011;44936;52.086;5.150;2023-05-10T00:38:25;13.68;;;4.30;;
36725;SDS011;44936;52.086;5.150;2023-05-10T00:40:50;14.60;;;3.92;;
36725;SDS011;44936;52.086;5.150;2023-05-10T00:43:18;12.63;;;4.63;;
36725;SDS011;44936;52.086;5.150;2023-05-10T00:45:44;15.30;;;4.30;;
36725;SDS011;44936;52.086;5.150;2023-05-10T00:48:10;15.93;;;5.03;;
36725;SDS011;44936;52.086;5.150;2023-05-10T00:50:36;13.85;;;4.05;;
36725;SDS011;44936;52.086;5.150;2023-05-10T00:53:02;19.20;;;4.82;;
36725;SDS011;44936;52.086;5.150;2023-05-10T00:55:30;19.00;;;4.88;;
36725;SDS011;44936;52.086;5.150;2023-05-10T00:57:56;15.43;;;4.38;;
36725;SDS011;44936;52.086;5.150;2023-05-10T01:00:23;17.48;;;4.78;;
36725;SDS011;44936;52.086;5.150;2023-05-10T01:02:48;19.52;;;4.93;;
36725;SDS011;44936;52.086;5.150;2023-05-10T01:05:14;13.82;;;4.07;;
36725;SDS011;44936;52.086;5.150;2023-05-10T01:07:43;19.48;;;4.90;;
36725;SDS011;44936;52.086;5.150;2023-05-10T01:10:09;17.58;;;4.97;;
36725;SDS011;44936;52.086;5.150;2023-05-10T01:12:38;20.42;;;5.28;;
36725;SDS011;44936;52.086;5.150;2023-05-10T01:15:08;17.58;;;5.07;;
36725;SDS011;44936;52.086;5.150;2023-05-10T01:17:36;17.33;;;4.28;;
36725;SDS011;44936;52.086;5.150;2023-05-10T01:20:05;15.75;;;4.20;;
36725;SDS011;44936;52.086;5.150;2023-05-10T01:38:51;19.08;;;4.90;;
36725;SDS011;44936;52.086;5.150;2023-05-10T01:46:44;21.80;;;4.95;;
36725;SDS011;44936;52.086;5.150;2023-05-10T01:49:39;21.33;;;4.93;;
36725;SDS011;44936;52.086;5.150;2023-05-10T01:52:08;21.05;;;4.55;;
36725;SDS011;44936;52.086;5.150;2023-05-10T01:54:44;18.45;;;4.00;;
36725;SDS011;44936;52.086;5.150;2023-05-10T01:57:15;24.40;;;5.32;;
36725;SDS011;44936;52.086;5.150;2023-05-10T01:59:43;24.02;;;5.43;;
36725;SDS011;44936;52.086;5.150;2023-05-10T02:02:17;23.42;;;5.22;;
36725;SDS011;44936;52.086;5.150;2023-05-10T02:04:45;18.63;;;4.07;;
36725;SDS011;44936;52.086;5.150;2023-05-10T02:07:12;24.88;;;5.13;;
36725;SDS011;44936;52.086;5.150;2023-05-10T02:09:39;23.33;;;4.68;;
36725;SDS011;44936;52.086;5.150;2023-05-10T02:12:07;22.75;;;4.32;;
36725;SDS011;44936;52.086;5.150;2023-05-10T02:14:34;26.20;;;5.15;;
36725;SDS011;44936;52.086;5.150;2023-05-10T02:17:02;17.95;;;4.07;;
36725;SDS011;44936;52.086;5.150;2023-05-10T02:19:31;31.02;;;6.60;;
36725;SDS011;44936;52.086;5.150;2023-05-10T02:21:57;22.13;;;5.18;;
36725;SDS011;44936;52.086;5.150;2023-05-10T02:24:25;25.35;;;5.72;;
36725;SDS011;44936;52.086;5.150;2023-05-10T02:26:53;27.80;;;4.88;;
36725;SDS011;44936;52.086;5.150;2023-05-10T02:29:25;24.73;;;4.68;;
36725;SDS011;44936;52.086;5.150;2023-05-10T02:31:54;23.52;;;5.70;;
36725;SDS011;44936;52.086;5.150;2023-05-10T02:34:21;29.88;;;6.30;;
36725;SDS011;44936;52.086;5.150;2023-05-10T02:36:48;21.38;;;4.55;;
36725;SDS011;44936;52.086;5.150;2023-05-10T02:39:15;27.45;;;6.30;;
36725;SDS011;44936;52.086;5.150;2023-05-10T02:41:42;21.80;;;6.07;;
36725;SDS011;44936;52.086;5.150;2023-05-10T02:44:10;28.92;;;5.70;;
36725;SDS011;44936;52.086;5.150;2023-05-10T02:46:38;20.90;;;6.00;;
36725;SDS011;44936;52.086;5.150;2023-05-10T02:49:10;22.02;;;4.88;;
36725;SDS011;44936;52.086;5.150;2023-05-10T02:51:37;29.38;;;6.53;;
36725;SDS011;44936;52.086;5.150;2023-05-10T02:54:10;23.35;;;6.38;;
36725;SDS011;44936;52.086;5.150;2023-05-10T02:56:42;24.95;;;5.68;;
36725;SDS011;44936;52.086;5.150;2023-05-10T02:59:11;20.05;;;4.63;;
36725;SDS011;44936;52.086;5.150;2023-05-10T03:01:37;31.13;;;6.63;;
36725;SDS011;44936;52.086;5.150;2023-05-10T03:04:03;22.38;;;5.40;;
36725;SDS011;44936;52.086;5.150;2023-05-10T03:06:28;22.83;;;5.90;;
36725;SDS011;44936;52.086;5.150;2023-05-10T03:08:53;26.42;;;6.60;;
36725;SDS011;44936;52.086;5.150;2023-05-10T03:17:06;18.67;;;4.85;;
36725;SDS011;44936;52.086;5.150;2023-05-10T03:19:51;25.13;;;5.47;;
36725;SDS011;44936;52.086;5.150;2023-05-10T03:22:23;22.20;;;5.45;;
36725;SDS011;44936;52.086;5.150;2023-05-10T03:24:55;18.40;;;4.65;;
36725;SDS011;44936;52.086;5.150;2023-05-10T03:27:22;21.42;;;4.90;;
36725;SDS011;44936;52.086;5.150;2023-05-10T03:29:52;21.45;;;4.88;;
36725;SDS011;44936;52.086;5.150;2023-05-10T03:32:19;25.75;;;5.30;;
36725;SDS011;44936;52.086;5.150;2023-05-10T03:34:45;29.35;;;6.47;;
36725;SDS011;44936;52.086;5.150;2023-05-10T03:37:10;37.13;;;6.95;;
36725;SDS011;44936;52.086;5.150;2023-05-10T03:39:36;23.00;;;5.78;;
36725;SDS011;44936;52.086;5.150;2023-05-10T03:42:04;20.95;;;4.75;;
36725;SDS011;44936;52.086;5.150;2023-05-10T03:44:29;25.17;;;6.78;;
36725;SDS011;44936;52.086;5.150;2023-05-10T03:46:54;19.90;;;5.50;;
36725;SDS011;44936;52.086;5.150;2023-05-10T03:49:21;20.52;;;5.68;;
36725;SDS011;44936;52.086;5.150;2023-05-10T03:51:47;29.63;;;5.43;;
36725;SDS011;44936;52.086;5.150;2023-05-10T03:54:12;24.70;;;4.90;;
36725;SDS011;44936;52.086;5.150;2023-05-10T03:56:38;22.65;;;5.05;;
36725;SDS011;44936;52.086;5.150;2023-05-10T03:59:03;29.13;;;6.68;;
36725;SDS011;44936;52.086;5.150;2023-05-10T04:01:32;26.35;;;6.03;;
36725;SDS011;44936;52.086;5.150;2023-05-10T04:03:59;22.77;;;5.82;;
36725;SDS011;44936;52.086;5.150;2023-05-10T04:06:24;26.25;;;5.28;;
36725;SDS011;44936;52.086;5.150;2023-05-10T04:08:49;24.10;;;5.82;;
36725;SDS011;44936;52.086;5.150;2023-05-10T04:11:15;32.38;;;7.13;;
36725;SDS011;44936;52.086;5.150;2023-05-10T04:13:40;24.92;;;6.00;;
36725;SDS011;44936;52.086;5.150;2023-05-10T04:16:06;21.65;;;4.85;;
36725;SDS011;44936;52.086;5.150;2023-05-10T04:18:31;27.25;;;6.65;;
36725;SDS011;44936;52.086;5.150;2023-05-10T04:20:57;24.50;;;6.00;;
36725;SDS011;44936;52.086;5.150;2023-05-10T04:23:22;26.88;;;6.60;;
36725;SDS011;44936;52.086;5.150;2023-05-10T04:25:48;20.42;;;5.07;;
36725;SDS011;44936;52.086;5.150;2023-05-10T04:28:13;27.67;;;5.20;;
36725;SDS011;44936;52.086;5.150;2023-05-10T04:30:39;21.65;;;5.25;;
36725;SDS011;44936;52.086;5.150;2023-05-10T04:33:05;27.42;;;6.13;;
36725;SDS011;44936;52.086;5.150;2023-05-10T04:35:30;22.25;;;6.38;;
36725;SDS011;44936;52.086;5.150;2023-05-10T04:37:56;21.52;;;5.68;;
36725;SDS011;44936;52.086;5.150;2023-05-10T04:40:21;22.63;;;6.10;;
36725;SDS011;44936;52.086;5.150;2023-05-10T04:42:46;24.55;;;6.20;;
36725;SDS011;44936;52.086;5.150;2023-05-10T04:45:12;25.42;;;6.15;;
36725;SDS011;44936;52.086;5.150;2023-05-10T04:47:39;22.85;;;5.65;;
36725;SDS011;44936;52.086;5.150;2023-05-10T04:50:07;22.88;;;5.35;;
36725;SDS011;44936;52.086;5.150;2023-05-10T04:52:35;19.92;;;6.38;;
36725;SDS011;44936;52.086;5.150;2023-05-10T04:55:01;17.48;;;4.93;;
36725;SDS011;44936;52.086;5.150;2023-05-10T04:57:26;20.73;;;5.85;;
36725;SDS011;44936;52.086;5.150;2023-05-10T04:59:52;23.63;;;5.82;;
36725;SDS011;44936;52.086;5.150;2023-05-10T05:02:17;23.38;;;6.13;;
36725;SDS011;44936;52.086;5.150;2023-05-10T05:04:43;14.90;;;5.38;;
36725;SDS011;44936;52.086;5.150;2023-05-10T05:07:08;20.17;;;6.53;;
36725;SDS011;44936;52.086;5.150;2023-05-10T05:09:33;23.13;;;8.00;;
36725;SDS011;44936;52.086;5.150;2023-05-10T05:11:59;21.55;;;6.40;;
36725;SDS011;44936;52.086;5.150;2023-05-10T05:14:25;22.77;;;6.70;;
36725;SDS011;44936;52.086;5.150;2023-05-10T05:16:50;24.90;;;5.35;;
36725;SDS011;44936;52.086;5.150;2023-05-10T05:19:16;20.52;;;5.97;;
36725;SDS011;44936;52.086;5.150;2023-05-10T05:21:42;26.40;;;7.30;;
36725;SDS011;44936;52.086;5.150;2023-05-10T05:24:10;20.52;;;5.95;;
36725;SDS011;44936;52.086;5.150;2023-05-10T05:26:37;19.67;;;5.63;;
36725;SDS011;44936;52.086;5.150;2023-05-10T05:29:03;18.38;;;5.47;;
36725;SDS011;44936;52.086;5.150;2023-05-10T05:31:28;24.80;;;5.40;;
36725;SDS011;44936;52.086;5.150;2023-05-10T05:33:57;17.38;;;5.20;;
36725;SDS011;44936;52.086;5.150;2023-05-10T05:36:22;20.20;;;5.70;;
36725;SDS011;44936;52.086;5.150;2023-05-10T05:38:47;19.67;;;5.03;;
36725;SDS011;44936;52.086;5.150;2023-05-10T05:41:12;18.50;;;5.03;;
36725;SDS011;44936;52.086;5.150;2023-05-10T05:43:38;19.73;;;5.78;;
36725;SDS011;44936;52.086;5.150;2023-05-10T05:46:07;20.60;;;5.05;;
36725;SDS011;44936;52.086;5.150;2023-05-10T05:48:32;20.73;;;5.90;;
36725;SDS011;44936;52.086;5.150;2023-05-10T05:50:58;18.05;;;5.22;;
36725;SDS011;44936;52.086;5.150;2023-05-10T05:53:26;23.88;;;6.53;;
36725;SDS011;44936;52.086;5.150;2023-05-10T05:55:52;16.83;;;4.88;;
36725;SDS011;44936;52.086;5.150;2023-05-10T05:58:21;17.77;;;5.22;;
36725;SDS011;44936;52.086;5.150;2023-05-10T06:00:47;19.92;;;5.40;;
36725;SDS011;44936;52.086;5.150;2023-05-10T06:03:16;17.02;;;5.00;;
36725;SDS011;44936;52.086;5.150;2023-05-10T06:05:41;20.23;;;5.20;;
36725;SDS011;44936;52.086;5.150;2023-05-10T06:08:09;17.13;;;3.63;;
36725;SDS011;44936;52.086;5.150;2023-05-10T06:10:34;17.42;;;4.30;;
36725;SDS011;44936;52.086;5.150;2023-05-10T06:13:00;14.85;;;4.05;;
36725;SDS011;44936;52.086;5.150;2023-05-10T06:15:25;10.27;;;3.00;;
36725;SDS011;44936;52.086;5.150;2023-05-10T06:17:51;6.25;;;2.13;;
36725;SDS011;44936;52.086;5.150;2023-05-10T06:20:16;10.68;;;2.67;;
36725;SDS011;44936;52.086;5.150;2023-05-10T06:22:42;10.60;;;2.80;;
36725;SDS011;44936;52.086;5.150;2023-05-10T06:25:07;10.80;;;3.30;;
36725;SDS011;44936;52.086;5.150;2023-05-10T06:27:33;10.80;;;2.70;;
36725;SDS011;44936;52.086;5.150;2023-05-10T06:29:59;6.63;;;2.33;;
36725;SDS011;44936;52.086;5.150;2023-05-10T06:32:27;9.32;;;2.58;;
36725;SDS011;44936;52.086;5.150;2023-05-10T06:34:53;8.98;;;2.50;;
36725;SDS011;44936;52.086;5.150;2023-05-10T06:37:18;5.20;;;1.80;;
36725;SDS011;44936;52.086;5.150;2023-05-10T06:39:44;6.43;;;2.25;;
36725;SDS011;44936;52.086;5.150;2023-05-10T06:42:09;8.60;;;2.38;;
36725;SDS011;44936;52.086;5.150;2023-05-10T06:44:34;8.60;;;2.53;;
36725;SDS011;44936;52.086;5.150;2023-05-10T06:47:00;7.80;;;2.72;;
36725;SDS011;44936;52.086;5.150;2023-05-10T06:49:25;8.18;;;2.90;;
36725;SDS011;44936;52.086;5.150;2023-05-10T06:51:50;7.47;;;2.70;;
36725;SDS011;44936;52.086;5.150;2023-05-10T06:54:16;7.30;;;2.30;;
36725;SDS011;44936;52.086;5.150;2023-05-10T06:56:42;7.00;;;2.17;;
36725;SDS011;44936;52.086;5.150;2023-05-10T06:59:08;6.40;;;2.20;;
36725;SDS011;44936;52.086;5.150;2023-05-10T07:01:33;7.07;;;2.60;;
36725;SDS011;44936;52.086;5.150;2023-05-10T07:03:59;6.28;;;1.90;;
36725;SDS011;44936;52.086;5.150;2023-05-10T07:06:27;9.50;;;2.40;;
36725;SDS011;44936;52.086;5.150;2023-05-10T07:08:52;10.20;;;2.88;;
36725;SDS011;44936;52.086;5.150;2023-05-10T07:11:18;8.25;;;2.25;;
36725;SDS011;44936;52.086;5.150;2023-05-10T07:13:43;7.10;;;1.95;;
36725;SDS011;44936;52.086;5.150;2023-05-10T07:16:11;5.95;;;2.45;;
36725;SDS011;44936;52.086;5.150;2023-05-10T07:18:36;7.45;;;1.95;;
36725;SDS011;44936;52.086;5.150;2023-05-10T07:21:01;5.97;;;2.25;;
36725;SDS011;44936;52.086;5.150;2023-05-10T07:23:27;5.22;;;1.73;;
36725;SDS011;44936;52.086;5.150;2023-05-10T07:25:55;6.32;;;2.17;;
36725;SDS011;44936;52.086;5.150;2023-05-10T07:28:22;5.55;;;2.35;;
36725;SDS011;44936;52.086;5.150;2023-05-10T07:30:49;6.57;;;2.42;;
36725;SDS011;44936;52.086;5.150;2023-05-10T07:33:15;8.65;;;2.50;;
36725;SDS011;44936;52.086;5.150;2023-05-10T07:35:40;5.63;;;2.22;;
36725;SDS011;44936;52.086;5.150;2023-05-10T07:38:06;7.03;;;2.30;;
36725;SDS011;44936;52.086;5.150;2023-05-10T07:40:31;8.85;;;2.22;;
36725;SDS011;44936;52.086;5.150;2023-05-10T07:42:57;7.00;;;2.22;;
36725;SDS011;44936;52.086;5.150;2023-05-10T07:45:24;5.35;;;2.28;;
36725;SDS011;44936;52.086;5.150;2023-05-10T07:47:50;6.78;;;2.25;;
36725;SDS011;44936;52.086;5.150;2023-05-10T07:50:15;5.57;;;2.35;;
36725;SDS011;44936;52.086;5.150;2023-05-10T07:52:40;6.13;;;2.08;;
36725;SDS011;44936;52.086;5.150;2023-05-10T07:55:06;7.32;;;2.50;;
36725;SDS011;44936;52.086;5.150;2023-05-10T07:57:33;4.78;;;1.80;;
36725;SDS011;44936;52.086;5.150;2023-05-10T07:59:59;4.07;;;1.70;;
36725;SDS011;44936;52.086;5.150;2023-05-10T08:02:24;4.75;;;1.70;;
36725;SDS011;44936;52.086;5.150;2023-05-10T08:04:49;5.90;;;1.90;;
36725;SDS011;44936;52.086;5.150;2023-05-10T08:07:15;4.63;;;1.55;;
36725;SDS011;44936;52.086;5.150;2023-05-10T08:09:43;6.13;;;1.70;;
36725;SDS011;44936;52.086;5.150;2023-05-10T08:12:08;5.10;;;2.00;;
36725;SDS011;44936;52.086;5.150;2023-05-10T08:14:36;5.53;;;1.65;;
36725;SDS011;44936;52.086;5.150;2023-05-10T08:17:02;5.20;;;1.60;;
36725;SDS011;44936;52.086;5.150;2023-05-10T08:19:28;7.35;;;2.15;;
36725;SDS011;44936;52.086;5.150;2023-05-10T08:21:56;5.80;;;1.65;;
36725;SDS011;44936;52.086;5.150;2023-05-10T08:24:22;3.85;;;1.63;;
36725;SDS011;44936;52.086;5.150;2023-05-10T08:26:47;7.20;;;2.03;;
36725;SDS011;44936;52.086;5.150;2023-05-10T08:29:13;7.05;;;2.03;;
36725;SDS011;44936;52.086;5.150;2023-05-10T08:31:39;5.28;;;1.88;;
36725;SDS011;44936;52.086;5.150;2023-05-10T08:34:04;5.28;;;1.90;;
36725;SDS011;44936;52.086;5.150;2023-05-10T08:36:30;5.03;;;1.80;;
36725;SDS011;44936;52.086;5.150;2023-05-10T08:38:57;5.90;;;1.83;;
36725;SDS011;44936;52.086;5.150;2023-05-10T08:41:23;7.05;;;2.13;;
36725;SDS011;44936;52.086;5.150;2023-05-10T08:43:50;6.38;;;2.00;;
36725;SDS011;44936;52.086;5.150;2023-05-10T08:46:17;6.32;;;2.08;;
36725;SDS011;44936;52.086;5.150;2023-05-10T08:48:44;4.63;;;1.90;;
36725;SDS011;44936;52.086;5.150;2023-05-10T08:51:14;4.18;;;1.58;;
36725;SDS011;44936;52.086;5.150;2023-05-10T08:53:42;6.75;;;2.00;;
36725;SDS011;44936;52.086;5.150;2023-05-10T08:56:09;5.13;;;1.85;;
36725;SDS011;44936;52.086;5.150;2023-05-10T08:58:38;4.13;;;1.83;;
36725;SDS011;44936;52.086;5.150;2023-05-10T09:01:04;5.20;;;1.85;;
36725;SDS011;44936;52.086;5.150;2023-05-10T09:03:31;5.45;;;1.80;;
36725;SDS011;44936;52.086;5.150;2023-05-10T09:06:03;5.03;;;1.98;;
36725;SDS011;44936;52.086;5.150;2023-05-10T09:08:31;4.90;;;1.75;;
36725;SDS011;44936;52.086;5.150;2023-05-10T09:10:58;5.50;;;1.90;;
36725;SDS011;44936;52.086;5.150;2023-05-10T09:13:25;5.43;;;1.88;;
36725;SDS011;44936;52.086;5.150;2023-05-10T09:15:51;4.47;;;1.50;;
36725;SDS011;44936;52.086;5.150;2023-05-10T09:18:17;4.20;;;1.60;;
36725;SDS011;44936;52.086;5.150;2023-05-10T09:20:43;4.80;;;1.58;;
36725;SDS011;44936;52.086;5.150;2023-05-10T09:23:08;7.13;;;1.77;;
36725;SDS011;44936;52.086;5.150;2023-05-10T09:25:34;3.33;;;1.40;;
36725;SDS011;44936;52.086;5.150;2023-05-10T09:28:00;4.05;;;1.30;;
36725;SDS011;44936;52.086;5.150;2023-05-10T09:30:30;4.15;;;1.38;;
36725;SDS011;44936;52.086;5.150;2023-05-10T09:32:59;3.45;;;1.63;;
36725;SDS011;44936;52.086;5.150;2023-05-10T09:35:26;6.10;;;1.52;;
36725;SDS011;44936;52.086;5.150;2023-05-10T09:37:54;2.40;;;1.10;;
36725;SDS011;44936;52.086;5.150;2023-05-10T09:40:21;3.22;;;1.55;;
36725;SDS011;44936;52.086;5.150;2023-05-10T09:45:26;5.32;;;1.40;;
36725;SDS011;44936;52.086;5.150;2023-05-10T09:47:53;2.72;;;1.15;;
36725;SDS011;44936;52.086;5.150;2023-05-10T09:50:19;3.50;;;1.13;;
36725;SDS011;44936;52.086;5.150;2023-05-10T09:52:56;3.90;;;1.25;;
36725;SDS011;44936;52.086;5.150;2023-05-10T09:55:26;4.85;;;1.40;;
36725;SDS011;44936;52.086;5.150;2023-05-10T09:58:02;2.58;;;1.17;;
36725;SDS011;44936;52.086;5.150;2023-05-10T10:00:33;2.85;;;1.48;;
36725;SDS011;44936;52.086;5.150;2023-05-10T10:03:03;3.42;;;1.40;;
36725;SDS011;44936;52.086;5.150;2023-05-10T10:05:39;3.72;;;1.30;;
36725;SDS011;44936;52.086;5.150;2023-05-10T10:08:09;4.40;;;1.25;;
36725;SDS011;44936;52.086;5.150;2023-05-10T10:10:35;4.05;;;1.13;;
36725;SDS011;44936;52.086;5.150;2023-05-10T10:13:01;3.33;;;1.45;;
36725;SDS011;44936;52.086;5.150;2023-05-10T10:15:26;2.88;;;1.30;;
36725;SDS011;44936;52.086;5.150;2023-05-10T10:17:52;4.45;;;1.20;;
36725;SDS011;44936;52.086;5.150;2023-05-10T10:20:19;2.45;;;1.20;;
36725;SDS011;44936;52.086;5.150;2023-05-10T10:22:46;2.75;;;1.45;;
36725;SDS011;44936;52.086;5.150;2023-05-10T10:25:12;1.58;;;0.88;;
36725;SDS011;44936;52.086;5.150;2023-05-10T10:27:44;3.67;;;1.17;;
36725;SDS011;44936;52.086;5.150;2023-05-10T10:30:29;3.50;;;1.80;;
36725;SDS011;44936;52.086;5.150;2023-05-10T10:35:45;3.20;;;1.45;;
36725;SDS011;44936;52.086;5.150;2023-05-10T10:38:12;4.20;;;1.50;;
36725;SDS011;44936;52.086;5.150;2023-05-10T10:40:38;3.13;;;1.55;;
36725;SDS011;44936;52.086;5.150;2023-05-10T10:48:37;4.53;;;1.60;;
36725;SDS011;44936;52.086;5.150;2023-05-10T10:51:03;3.83;;;1.48;;
36725;SDS011;44936;52.086;5.150;2023-05-10T10:53:28;3.88;;;1.23;;
36725;SDS011;44936;52.086;5.150;2023-05-10T10:56:10;6.35;;;1.52;;
36725;SDS011;44936;52.086;5.150;2023-05-10T10:58:38;7.53;;;2.55;;
36725;SDS011;44936;52.086;5.150;2023-05-10T11:03:40;5.50;;;1.95;;
36725;SDS011;44936;52.086;5.150;2023-05-10T11:06:28;5.50;;;1.48;;
36725;SDS011;44936;52.086;5.150;2023-05-10T11:08:57;2.97;;;1.23;;
36725;SDS011;44936;52.086;5.150;2023-05-10T11:11:23;5.10;;;1.20;;
36725;SDS011;44936;52.086;5.150;2023-05-10T11:13:48;3.42;;;1.52;;
36725;SDS011;44936;52.086;5.150;2023-05-10T11:18:51;3.83;;;1.50;;
36725;SDS011;44936;52.086;5.150;2023-05-10T11:21:21;6.80;;;1.70;;
36725;SDS011;44936;52.086;5.150;2023-05-10T11:26:11;3.60;;;1.25;;
36725;SDS011;44936;52.086;5.150;2023-05-10T11:28:44;2.88;;;1.45;;
36725;SDS011;44936;52.086;5.150;2023-05-10T11:33:51;3.47;;;0.93;;
36725;SDS011;44936;52.086;5.150;2023-05-10T11:36:18;4.03;;;1.25;;
36725;SDS011;44936;52.086;5.150;2023-05-10T11:38:48;1.75;;;1.10;;
36725;SDS011;44936;52.086;5.150;2023-05-10T11:41:14;2.60;;;1.20;;
36725;SDS011;44936;52.086;5.150;2023-05-10T11:43:41;2.60;;;1.33;;
36725;SDS011;44936;52.086;5.150;2023-05-10T11:46:17;3.67;;;1.02;;
36725;SDS011;44936;52.086;5.150;2023-05-10T11:48:45;3.25;;;1.17;;
36725;SDS011;44936;52.086;5.150;2023-05-10T11:51:23;2.88;;;1.40;;
36725;SDS011;44936;52.086;5.150;2023-05-10T11:53:50;1.58;;;1.15;;
36725;SDS011;44936;52.086;5.150;2023-05-10T11:56:17;3.13;;;1.23;;
36725;SDS011;44936;52.086;5.150;2023-05-10T11:58:43;3.10;;;1.38;;
36725;SDS011;44936;52.086;5.150;2023-05-10T12:04:37;2.30;;;1.20;;
36725;SDS011;44936;52.086;5.150;2023-05-10T12:07:02;5.65;;;1.00;;
36725;SDS011;44936;52.086;5.150;2023-05-10T12:09:29;2.70;;;1.25;;
36725;SDS011;44936;52.086;5.150;2023-05-10T12:11:55;2.50;;;1.40;;
36725;SDS011;44936;52.086;5.150;2023-05-10T12:14:24;4.43;;;1.40;;
36725;SDS011;44936;52.086;5.150;2023-05-10T12:16:49;3.75;;;1.40;;
36725;SDS011;44936;52.086;5.150;2023-05-10T12:19:18;4.43;;;1.88;;
36725;SDS011;44936;52.086;5.150;2023-05-10T12:21:45;3.97;;;1.73;;
36725;SDS011;44936;52.086;5.150;2023-05-10T12:24:11;3.72;;;1.70;;
36725;SDS011;44936;52.086;5.150;2023-05-10T12:26:42;4.45;;;1.98;;
36725;SDS011;44936;52.086;5.150;2023-05-10T12:29:17;2.88;;;1.60;;
36725;SDS011;44936;52.086;5.150;2023-05-10T12:34:23;7.95;;;2.15;;
36725;SDS011;44936;52.086;5.150;2023-05-10T12:40:11;8.15;;;2.08;;
36725;SDS011;44936;52.086;5.150;2023-05-10T12:42:40;8.02;;;2.35;;
36725;SDS011;44936;52.086;5.150;2023-05-10T12:45:12;7.47;;;1.83;;
36725;SDS011;44936;52.086;5.150;2023-05-10T12:58:06;10.70;;;2.30;;
36725;SDS011;44936;52.086;5.150;2023-05-10T13:00:41;7.28;;;2.47;;
36725;SDS011;44936;52.086;5.150;2023-05-10T13:03:11;10.15;;;2.67;;
36725;SDS011;44936;52.086;5.150;2023-05-10T13:05:45;8.00;;;2.22;;
36725;SDS011;44936;52.086;5.150;2023-05-10T13:08:12;9.48;;;2.47;;
36725;SDS011;44936;52.086;5.150;2023-05-10T13:10:41;9.73;;;2.30;;
36725;SDS011;44936;52.086;5.150;2023-05-10T13:34:05;7.50;;;2.40;;
36725;SDS011;44936;52.086;5.150;2023-05-10T13:36:37;6.85;;;2.30;;
36725;SDS011;44936;52.086;5.150;2023-05-10T13:39:13;9.13;;;2.70;;
36725;SDS011;44936;52.086;5.150;2023-05-10T13:41:41;8.38;;;2.80;;
36725;SDS011;44936;52.086;5.150;2023-05-10T13:44:06;5.28;;;2.30;;
36725;SDS011;44936;52.086;5.150;2023-05-10T13:46:32;7.18;;;2.50;;
36725;SDS011;44936;52.086;5.150;2023-05-10T13:49:06;7.68;;;2.70;;
36725;SDS011;44936;52.086;5.150;2023-05-10T13:51:32;8.68;;;2.63;;
36725;SDS011;44936;52.086;5.150;2023-05-10T13:54:01;6.13;;;2.00;;
36725;SDS011;44936;52.086;5.150;2023-05-10T14:24:18;3.97;;;1.50;;
36725;SDS011;44936;52.086;5.150;2023-05-10T14:30:05;6.40;;;1.50;;
36725;SDS011;44936;52.086;5.150;2023-05-10T14:32:31;5.60;;;2.00;;
36725;SDS011;44936;52.086;5.150;2023-05-10T14:34:57;5.03;;;1.77;;
36725;SDS011;44936;52.086;5.150;2023-05-10T14:37:27;3.75;;;1.75;;
36725;SDS011;44936;52.086;5.150;2023-05-10T14:39:57;4.68;;;1.80;;
36725;SDS011;44936;52.086;5.150;2023-05-10T14:42:25;7.80;;;1.80;;
36725;SDS011;44936;52.086;5.150;2023-05-10T14:44:51;4.68;;;1.75;;
36725;SDS011;44936;52.086;5.150;2023-05-10T14:47:17;3.97;;;1.73;;
36725;SDS011;44936;52.086;5.150;2023-05-10T14:49:42;5.55;;;1.90;;
36725;SDS011;44936;52.086;5.150;2023-05-10T14:52:08;6.05;;;2.15;;
36725;SDS011;44936;52.086;5.150;2023-05-10T14:54:33;5.80;;;2.00;;
36725;SDS011;44936;52.086;5.150;2023-05-10T14:56:59;6.25;;;2.10;;
36725;SDS011;44936;52.086;5.150;2023-05-10T14:59:25;3.85;;;1.83;;
36725;SDS011;44936;52.086;5.150;2023-05-10T15:01:50;4.65;;;1.70;;
36725;SDS011;44936;52.086;5.150;2023-05-10T15:04:16;4.75;;;1.90;;
36725;SDS011;44936;52.086;5.150;2023-05-10T15:06:42;7.35;;;1.60;;
36725;SDS011;44936;52.086;5.150;2023-05-10T15:09:07;3.75;;;1.40;;
36725;SDS011;44936;52.086;5.150;2023-05-10T15:11:33;3.92;;;1.83;;
36725;SDS011;44936;52.086;5.150;2023-05-10T15:13:59;5.05;;;2.25;;
36725;SDS011;44936;52.086;5.150;2023-05-10T15:16:27;3.90;;;1.55;;
36725;SDS011;44936;52.086;5.150;2023-05-10T15:18:52;3.75;;;1.70;;
36725;SDS011;44936;52.086;5.150;2023-05-10T15:21:18;3.80;;;2.20;;
36725;SDS011;44936;52.086;5.150;2023-05-10T15:23:43;3.83;;;1.25;;
36725;SDS011;44936;52.086;5.150;2023-05-10T15:26:09;6.78;;;2.17;;
36725;SDS011;44936;52.086;5.150;2023-05-10T15:28:34;4.05;;;1.38;;
36725;SDS011;44936;52.086;5.150;2023-05-10T15:31:00;3.78;;;1.60;;
36725;SDS011;44936;52.086;5.150;2023-05-10T15:33:25;3.28;;;1.48;;
36725;SDS011;44936;52.086;5.150;2023-05-10T15:35:52;4.15;;;1.40;;
36725;SDS011;44936;52.086;5.150;2023-05-10T15:38:18;4.95;;;1.60;;
36725;SDS011;44936;52.086;5.150;2023-05-10T15:40:44;4.03;;;1.42;;
36725;SDS011;44936;52.086;5.150;2023-05-10T15:43:09;5.70;;;1.52;;
36725;SDS011;44936;52.086;5.150;2023-05-10T15:45:36;4.25;;;1.30;;
36725;SDS011;44936;52.086;5.150;2023-05-10T15:48:01;6.10;;;1.70;;
36725;SDS011;44936;52.086;5.150;2023-05-10T15:50:27;6.13;;;1.75;;
36725;SDS011;44936;52.086;5.150;2023-05-10T15:52:55;6.18;;;2.30;;
36725;SDS011;44936;52.086;5.150;2023-05-10T15:55:21;5.28;;;2.10;;
36725;SDS011;44936;52.086;5.150;2023-05-10T15:57:46;5.00;;;1.73;;
36725;SDS011;44936;52.086;5.150;2023-05-10T16:00:12;6.72;;;1.67;;
36725;SDS011;44936;52.086;5.150;2023-05-10T16:02:40;6.00;;;2.03;;
36725;SDS011;44936;52.086;5.150;2023-05-10T16:05:06;6.00;;;1.98;;
36725;SDS011;44936;52.086;5.150;2023-05-10T16:07:33;7.00;;;2.20;;
36725;SDS011;44936;52.086;5.150;2023-05-10T16:09:59;6.82;;;2.15;;
36725;SDS011;44936;52.086;5.150;2023-05-10T16:12:28;6.63;;;2.40;;
36725;SDS011;44936;52.086;5.150;2023-05-10T16:14:54;7.13;;;2.38;;
36725;SDS011;44936;52.086;5.150;2023-05-10T16:17:19;7.68;;;2.45;;
36725;SDS011;44936;52.086;5.150;2023-05-10T16:19:44;6.82;;;2.30;;
36725;SDS011;44936;52.086;5.150;2023-05-10T16:22:11;8.13;;;2.45;;
36725;SDS011;44936;52.086;5.150;2023-05-10T16:24:36;6.57;;;2.03;;
36725;SDS011;44936;52.086;5.150;2023-05-10T16:27:02;5.07;;;2.25;;
36725;SDS011;44936;52.086;5.150;2023-05-10T16:29:27;7.40;;;2.58;;
36725;SDS011;44936;52.086;5.150;2023-05-10T16:31:53;9.90;;;2.70;;
36725;SDS011;44936;52.086;5.150;2023-05-10T16:34:18;6.85;;;2.50;;
36725;SDS011;44936;52.086;5.150;2023-05-10T16:36:48;5.13;;;1.85;;
36725;SDS011;44936;52.086;5.150;2023-05-10T16:39:13;6.25;;;2.13;;
36725;SDS011;44936;52.086;5.150;2023-05-10T16:41:41;7.43;;;2.20;;
36725;SDS011;44936;52.086;5.150;2023-05-10T16:44:07;9.52;;;2.40;;